createdAt,value
2023-01-21T00:01:14.645Z,-1.93
2023-01-21T00:03:42.216Z,-1.88
2023-01-21T00:06:09.551Z,-1.91
2023-01-21T00:08:37.402Z,-1.90
2023-01-21T00:11:14.544Z,-1.88
2023-01-21T00:13:42.762Z,-1.87
2023-01-21T00:16:10.159Z,-1.87
2023-01-21T00:18:36.951Z,-1.85
2023-01-21T00:21:05.171Z,-1.87
2023-01-21T00:23:32.001Z,-1.89
2023-01-21T00:26:00.525Z,-1.87
2023-01-21T00:28:32.101Z,-1.89
2023-01-21T00:31:00.346Z,-1.96
2023-01-21T00:33:28.211Z,-1.94
2023-01-21T00:36:09.829Z,-1.95
2023-01-21T00:38:37.289Z,-1.96
2023-01-21T00:41:09.858Z,-1.99
2023-01-21T00:43:37.120Z,-2.00
2023-01-21T00:46:04.335Z,-2.07
2023-01-21T00:48:31.644Z,-2.07
2023-01-21T00:51:01.874Z,-2.10
2023-01-21T00:53:31.210Z,-2.11
2023-01-21T00:56:02.881Z,-2.14
2023-01-21T00:58:30.862Z,-2.12
2023-01-21T01:01:20.596Z,-2.11
2023-01-21T01:03:48.829Z,-2.09
2023-01-21T01:06:22.835Z,-2.08
2023-01-21T01:08:50.561Z,-2.09
2023-01-21T01:11:18.111Z,-2.07
2023-01-21T01:13:45.157Z,-2.13
2023-01-21T01:16:15.021Z,-2.10
2023-01-21T01:18:42.553Z,-2.09
2023-01-21T01:21:15.027Z,-2.08
2023-01-21T01:23:41.910Z,-2.11
2023-01-21T01:26:13.028Z,-2.10
2023-01-21T01:28:39.840Z,-2.10
2023-01-21T01:31:09.236Z,-2.10
2023-01-21T01:33:36.202Z,-2.10
2023-01-21T01:36:08.844Z,-2.11
2023-01-21T01:38:35.630Z,-2.10
2023-01-21T01:41:02.649Z,-2.09
2023-01-21T01:43:51.231Z,-2.13
2023-01-21T01:46:18.079Z,-2.15
2023-01-21T01:48:48.770Z,-2.17
2023-01-21T01:51:19.212Z,-2.17
2023-01-21T01:53:48.181Z,-2.17
2023-01-21T01:56:15.520Z,-2.18
2023-01-21T01:58:44.098Z,-2.23
2023-01-21T02:01:10.902Z,-2.25
2023-01-21T02:03:46.155Z,-2.26
2023-01-21T02:06:14.955Z,-2.25
2023-01-21T02:08:44.235Z,-2.25
2023-01-21T02:11:17.935Z,-2.25
2023-01-21T02:13:54.436Z,-2.24
2023-01-21T02:16:32.368Z,-2.25
2023-01-21T02:19:25.445Z,-2.23
2023-01-21T02:22:16.926Z,-2.23
2023-01-21T02:24:52.767Z,-2.20
2023-01-21T02:27:31.545Z,-2.18
2023-01-21T02:30:28.257Z,-2.23
2023-01-21T02:33:17.500Z,-2.28
2023-01-21T02:36:05.936Z,-2.33
2023-01-21T02:38:43.256Z,-2.38
2023-01-21T02:41:18.896Z,-2.40
2023-01-21T02:44:08.109Z,-2.43
2023-01-21T02:46:52.843Z,-2.39
2023-01-21T02:49:32.098Z,-2.40
2023-01-21T02:51:59.024Z,-2.40
2023-01-21T02:54:41.192Z,-2.57
2023-01-21T02:57:28.581Z,-2.77
2023-01-21T02:59:57.793Z,-2.75
2023-01-21T03:02:42.566Z,-2.85
2023-01-21T03:05:44.577Z,-2.79
2023-01-21T03:08:20.225Z,-2.69
2023-01-21T03:11:14.711Z,-2.67
2023-01-21T03:14:26.018Z,-2.68
2023-01-21T03:17:01.368Z,-2.70
2023-01-21T03:19:27.998Z,-2.72
2023-01-21T03:21:57.710Z,-2.73
2023-01-21T03:24:25.183Z,-2.73
2023-01-21T03:26:57.316Z,-2.86
2023-01-21T03:29:27.706Z,-2.85
2023-01-21T03:32:02.976Z,-2.74
2023-01-21T03:34:33.133Z,-2.73
2023-01-21T03:37:11.841Z,-2.73
2023-01-21T03:39:44.526Z,-2.75
2023-01-21T03:42:12.368Z,-2.76
2023-01-21T03:44:45.463Z,-2.77
2023-01-21T03:47:24.515Z,-2.80
2023-01-21T03:50:25.289Z,-2.75
2023-01-21T03:52:52.423Z,-2.72
2023-01-21T03:55:22.135Z,-2.80
2023-01-21T03:57:48.914Z,-2.87
2023-01-21T04:00:17.688Z,-3.00
2023-01-21T04:02:44.853Z,-3.13
2023-01-21T04:05:14.306Z,-3.10
2023-01-21T04:07:41.089Z,-3.01
2023-01-21T04:10:11.932Z,-2.96
2023-01-21T04:12:38.705Z,-2.97
2023-01-21T04:15:06.129Z,-2.93
2023-01-21T04:17:33.037Z,-2.94
2023-01-21T04:19:59.811Z,-2.95
2023-01-21T04:22:38.695Z,-2.91
2023-01-21T04:25:05.663Z,-2.89
2023-01-21T04:27:32.438Z,-2.87
2023-01-21T04:29:59.358Z,-2.85
2023-01-21T04:32:26.190Z,-2.88
2023-01-21T04:34:53.236Z,-2.90
2023-01-21T04:37:20.044Z,-2.93
2023-01-21T04:39:46.932Z,-2.94
2023-01-21T04:42:13.764Z,-2.97
2023-01-21T04:44:40.582Z,-2.99
2023-01-21T04:47:07.309Z,-2.92
2023-01-21T04:49:34.001Z,-2.91
2023-01-21T04:52:00.870Z,-2.94
2023-01-21T04:54:27.669Z,-2.94
2023-01-21T04:56:54.444Z,-2.95
2023-01-21T04:59:21.250Z,-2.99
2023-01-21T05:01:47.931Z,-3.07
2023-01-21T05:04:14.717Z,-3.05
2023-01-21T05:06:41.443Z,-3.04
2023-01-21T05:09:08.197Z,-3.07
2023-01-21T05:11:36.174Z,-3.04
2023-01-21T05:14:03.106Z,-3.02
2023-01-21T05:16:31.108Z,-3.04
2023-01-21T05:18:57.845Z,-3.09
2023-01-21T05:21:24.813Z,-3.10
2023-01-21T05:23:52.131Z,-3.13
2023-01-21T05:26:19.517Z,-3.16
2023-01-21T05:28:46.219Z,-3.20
2023-01-21T05:31:13.210Z,-3.17
2023-01-21T05:33:40.064Z,-3.16
2023-01-21T05:36:09.606Z,-3.17
2023-01-21T05:38:36.417Z,-3.20
2023-01-21T05:41:05.628Z,-3.24
2023-01-21T05:43:32.398Z,-3.25
2023-01-21T05:45:59.148Z,-3.28
2023-01-21T05:48:26.000Z,-3.20
2023-01-21T05:50:52.719Z,-3.19
2023-01-21T05:53:21.673Z,-3.20
2023-01-21T05:55:52.205Z,-3.19
2023-01-21T05:58:19.394Z,-3.18
2023-01-21T06:00:48.711Z,-3.18
2023-01-21T06:03:16.868Z,-3.19
2023-01-21T06:05:44.702Z,-3.21
2023-01-21T06:08:13.799Z,-3.22
2023-01-21T06:10:41.121Z,-3.19
2023-01-21T06:13:15.881Z,-3.22
2023-01-21T06:15:43.244Z,-3.22
2023-01-21T06:18:09.936Z,-3.26
2023-01-21T06:20:36.887Z,-3.28
2023-01-21T06:23:03.934Z,-3.27
2023-01-21T06:25:31.661Z,-3.31
2023-01-21T06:27:59.685Z,-3.29
2023-01-21T06:30:26.511Z,-3.31
2023-01-21T06:32:53.496Z,-3.43
2023-01-21T06:35:21.373Z,-3.33
2023-01-21T06:37:48.169Z,-3.34
2023-01-21T06:40:15.684Z,-3.30
2023-01-21T06:42:46.737Z,-3.47
2023-01-21T06:45:13.600Z,-3.52
2023-01-21T06:47:42.543Z,-3.40
2023-01-21T06:50:11.565Z,-3.38
2023-01-21T06:52:41.898Z,-3.33
2023-01-21T06:55:09.200Z,-3.34
2023-01-21T06:57:37.559Z,-3.34
2023-01-21T07:00:05.310Z,-3.36
2023-01-21T07:02:32.338Z,-3.37
2023-01-21T07:04:59.239Z,-3.39
2023-01-21T07:07:26.496Z,-3.44
2023-01-21T07:09:53.310Z,-3.34
2023-01-21T07:12:20.202Z,-3.32
2023-01-21T07:14:46.901Z,-3.36
2023-01-21T07:17:13.870Z,-3.36
2023-01-21T07:19:40.579Z,-3.28
2023-01-21T07:22:07.537Z,-3.25
2023-01-21T07:24:34.561Z,-3.23
2023-01-21T07:27:01.411Z,-3.18
2023-01-21T07:29:28.906Z,-3.11
2023-01-21T07:31:55.874Z,-3.04
2023-01-21T07:34:22.753Z,-2.95
2023-01-21T07:36:50.622Z,-2.94
2023-01-21T07:39:17.370Z,-2.97
2023-01-21T07:41:44.218Z,-3.09
2023-01-21T07:44:11.866Z,-3.03
2023-01-21T07:46:38.916Z,-2.99
2023-01-21T07:49:05.662Z,-2.88
2023-01-21T07:51:32.491Z,-2.85
2023-01-21T07:53:59.416Z,-2.77
2023-01-21T07:56:26.900Z,-2.71
2023-01-21T07:58:53.845Z,-2.50
2023-01-21T08:01:21.463Z,-2.51
2023-01-21T08:03:49.411Z,-2.40
2023-01-21T08:06:16.614Z,-2.51
2023-01-21T08:08:43.370Z,-2.40
2023-01-21T08:11:10.231Z,-2.35
2023-01-21T08:13:37.073Z,-2.26
2023-01-21T08:16:04.799Z,-2.06
2023-01-21T08:18:31.850Z,-2.06
2023-01-21T08:21:00.119Z,-2.14
2023-01-21T08:23:27.337Z,-2.08
2023-01-21T08:25:55.861Z,-2.12
2023-01-21T08:28:23.358Z,-2.08
2023-01-21T08:30:50.155Z,-2.04
2023-01-21T08:33:21.099Z,-1.97
2023-01-21T08:35:47.805Z,-1.95
2023-01-21T08:38:14.609Z,-1.89
2023-01-21T08:40:41.363Z,-1.88
2023-01-21T08:43:09.529Z,-1.89
2023-01-21T08:45:36.410Z,-1.85
2023-01-21T08:48:04.042Z,-1.80
2023-01-21T08:50:30.736Z,-1.86
2023-01-21T08:52:58.896Z,-1.83
2023-01-21T08:55:29.136Z,-1.70
2023-01-21T08:58:06.023Z,-1.62
2023-01-21T09:00:33.785Z,-1.70
2023-01-21T09:03:00.701Z,-1.69
2023-01-21T09:05:29.555Z,-1.55
2023-01-21T09:07:58.175Z,-1.53
2023-01-21T09:10:45.247Z,-1.51
2023-01-21T09:13:12.075Z,-1.34
2023-01-21T09:15:40.323Z,-1.16
2023-01-21T09:18:07.583Z,-0.94
2023-01-21T09:20:34.953Z,-0.97
2023-01-21T09:23:01.611Z,-1.04
2023-01-21T09:25:28.376Z,-1.08
2023-01-21T09:27:55.274Z,-0.98
2023-01-21T09:30:22.080Z,-0.96
2023-01-21T09:32:49.010Z,-0.85
2023-01-21T09:35:16.029Z,-0.98
2023-01-21T09:37:45.078Z,-0.99
2023-01-21T09:40:16.957Z,-1.11
2023-01-21T09:42:43.947Z,-1.07
2023-01-21T09:45:16.036Z,-1.08
2023-01-21T09:47:44.935Z,-1.12
2023-01-21T09:50:29.840Z,-1.02
2023-01-21T09:53:06.522Z,-0.91
2023-01-21T09:55:47.729Z,-0.93
2023-01-21T09:58:18.734Z,-0.90
2023-01-21T10:01:18.621Z,-0.96
2023-01-21T10:03:55.604Z,-0.85
2023-01-21T10:06:28.579Z,-0.70
2023-01-21T10:09:07.433Z,-0.53
2023-01-21T10:11:50.258Z,-0.51
2023-01-21T10:14:23.054Z,-0.62
2023-01-21T10:16:52.493Z,-0.64
2023-01-21T10:19:28.465Z,-0.49
2023-01-21T10:22:00.408Z,-0.40
2023-01-21T10:25:28.810Z,-0.33
2023-01-21T10:27:59.519Z,-0.16
2023-01-21T10:30:38.098Z,-0.18
2023-01-21T10:33:12.520Z,-0.13
2023-01-21T10:35:45.348Z,-0.19
2023-01-21T10:38:52.321Z,-0.25
2023-01-21T10:41:50.784Z,-0.24
2023-01-21T10:44:26.657Z,-0.26
2023-01-21T10:47:07.084Z,-0.18
2023-01-21T10:49:57.605Z,0.01
2023-01-21T10:53:05.690Z,0.64
2023-01-21T10:55:53.849Z,1.77
2023-01-21T10:58:29.496Z,2.13
2023-01-21T11:01:01.008Z,1.69
2023-01-21T11:03:47.482Z,2.26
2023-01-21T11:06:18.183Z,2.88
2023-01-21T11:08:56.947Z,3.18
2023-01-21T11:11:33.658Z,3.49
2023-01-21T11:14:01.016Z,3.53
2023-01-21T11:16:47.798Z,3.34
2023-01-21T11:19:26.661Z,4.34
2023-01-21T11:22:18.132Z,4.84
2023-01-21T11:24:51.037Z,4.50
2023-01-21T11:27:31.692Z,4.68
2023-01-21T11:29:58.797Z,4.92
2023-01-21T11:32:28.518Z,5.16
2023-01-21T11:35:01.138Z,5.05
2023-01-21T11:37:29.922Z,5.57
2023-01-21T11:40:00.066Z,5.52
2023-01-21T11:42:27.492Z,5.75
2023-01-21T11:45:24.264Z,5.33
2023-01-21T11:47:52.059Z,4.84
2023-01-21T11:50:37.893Z,4.24
2023-01-21T11:53:11.558Z,4.16
2023-01-21T11:55:42.111Z,3.74
2023-01-21T11:58:35.795Z,3.61
2023-01-21T12:01:21.993Z,3.34
2023-01-21T12:03:53.358Z,2.90
2023-01-21T12:06:25.474Z,2.99
2023-01-21T12:08:56.172Z,2.99
2023-01-21T12:11:28.365Z,2.88
2023-01-21T12:14:33.806Z,3.04
2023-01-21T12:17:29.137Z,2.54
2023-01-21T12:20:17.439Z,2.72
2023-01-21T12:22:44.362Z,2.60
2023-01-21T12:25:47.331Z,2.50
2023-01-21T12:28:15.336Z,2.19
2023-01-21T12:30:49.442Z,2.03
2023-01-21T12:33:31.142Z,2.27
2023-01-21T12:36:01.748Z,2.31
2023-01-21T12:38:54.553Z,2.14
2023-01-21T12:41:32.970Z,1.94
2023-01-21T12:44:23.573Z,1.86
2023-01-21T12:46:53.058Z,1.92
2023-01-21T12:49:44.158Z,1.91
2023-01-21T12:52:24.177Z,1.83
2023-01-21T12:55:01.744Z,1.77
2023-01-21T12:57:36.315Z,1.68
2023-01-21T13:00:14.576Z,1.73
2023-01-21T13:02:53.447Z,1.82
2023-01-21T13:05:36.565Z,1.75
2023-01-21T13:08:25.331Z,1.81
2023-01-21T13:11:03.252Z,1.74
2023-01-21T13:13:45.348Z,1.82
2023-01-21T13:16:12.822Z,1.65
2023-01-21T13:18:47.450Z,1.74
2023-01-21T13:21:32.541Z,1.72
2023-01-21T13:24:55.917Z,1.75
2023-01-21T13:27:38.760Z,1.67
2023-01-21T13:30:30.601Z,1.68
2023-01-21T13:33:25.940Z,1.65
2023-01-21T13:36:07.677Z,1.66
2023-01-21T13:38:34.438Z,1.59
2023-01-21T13:41:13.421Z,1.49
2023-01-21T13:43:54.436Z,1.45
2023-01-21T13:46:48.379Z,1.34
2023-01-21T13:49:33.547Z,1.45
2023-01-21T13:52:08.700Z,1.38
2023-01-21T13:55:04.232Z,1.38
2023-01-21T13:57:45.979Z,1.39
2023-01-21T14:00:28.683Z,1.20
2023-01-21T14:03:06.410Z,1.25
2023-01-21T14:05:44.521Z,1.16
2023-01-21T14:08:14.173Z,1.15
2023-01-21T14:10:59.869Z,1.05
2023-01-21T14:13:53.749Z,1.00
2023-01-21T14:16:29.540Z,0.79
2023-01-21T14:19:23.361Z,0.71
2023-01-21T14:22:11.993Z,0.62
2023-01-21T14:24:47.893Z,0.61
2023-01-21T14:27:37.337Z,0.47
2023-01-21T14:30:21.399Z,0.44
2023-01-21T14:32:55.016Z,0.42
2023-01-21T14:35:21.747Z,0.53
2023-01-21T14:37:56.486Z,0.50
2023-01-21T14:40:30.383Z,0.51
2023-01-21T14:42:57.965Z,0.46
2023-01-21T14:45:53.576Z,0.45
2023-01-21T14:48:41.854Z,0.44
2023-01-21T14:51:13.236Z,0.53
2023-01-21T14:53:51.439Z,0.57
2023-01-21T14:56:34.293Z,0.57
2023-01-21T14:59:24.272Z,0.62
2023-01-21T15:02:01.559Z,0.58
2023-01-21T15:04:32.557Z,0.56
2023-01-21T15:07:02.796Z,0.61
2023-01-21T15:09:42.345Z,0.51
2023-01-21T15:12:17.848Z,0.43
2023-01-21T15:14:46.105Z,0.47
2023-01-21T15:17:51.583Z,0.42
2023-01-21T15:21:00.782Z,0.32
2023-01-21T15:23:37.301Z,0.25
2023-01-21T15:26:11.382Z,0.17
2023-01-21T15:28:48.228Z,0.19
2023-01-21T15:31:21.258Z,0.11
2023-01-21T15:33:56.400Z,0.14
2023-01-21T15:36:35.566Z,0.17
2023-01-21T15:39:12.400Z,0.19
2023-01-21T15:42:18.719Z,0.17
2023-01-21T15:45:05.218Z,0.14
2023-01-21T15:47:45.681Z,0.03
2023-01-21T15:50:22.465Z,-0.08
2023-01-21T15:52:52.137Z,-0.13
2023-01-21T15:55:33.333Z,-0.21
2023-01-21T15:58:28.640Z,-0.21
2023-01-21T16:01:17.690Z,-0.25
2023-01-21T16:03:58.497Z,-0.33
2023-01-21T16:06:34.289Z,-0.40
2023-01-21T16:09:09.461Z,-0.43
2023-01-21T16:11:58.074Z,-0.37
2023-01-21T16:14:27.385Z,-0.38
2023-01-21T16:17:09.232Z,-0.46
2023-01-21T16:19:45.409Z,-0.47
2023-01-21T16:22:17.721Z,-0.68
2023-01-21T16:24:48.699Z,-0.61
2023-01-21T16:27:31.079Z,-0.66
2023-01-21T16:29:58.781Z,-0.60
2023-01-21T16:32:27.104Z,-0.61
2023-01-21T16:34:54.379Z,-0.67
2023-01-21T16:37:24.063Z,-0.68
2023-01-21T16:39:55.479Z,-0.77
2023-01-21T16:42:44.298Z,-0.79
2023-01-21T16:45:20.198Z,-0.80
2023-01-21T16:47:56.906Z,-0.77
2023-01-21T16:50:29.613Z,-0.81
2023-01-21T16:52:58.652Z,-0.85
2023-01-21T16:55:27.889Z,-1.03
2023-01-21T16:57:57.268Z,-1.09
2023-01-21T17:00:24.578Z,-1.14
2023-01-21T17:02:51.616Z,-1.16
2023-01-21T17:05:19.232Z,-1.06
2023-01-21T17:07:58.669Z,-1.00
2023-01-21T17:10:36.620Z,-1.20
2023-01-21T17:13:08.137Z,-1.02
2023-01-21T17:15:38.940Z,-0.99
2023-01-21T17:18:10.820Z,-1.16
2023-01-21T17:20:48.798Z,-1.27
2023-01-21T17:23:24.247Z,-1.39
2023-01-21T17:26:00.866Z,-1.59
2023-01-21T17:28:28.463Z,-1.40
2023-01-21T17:31:19.057Z,-1.32
2023-01-21T17:33:46.036Z,-1.56
2023-01-21T17:36:15.607Z,-1.67
2023-01-21T17:38:44.930Z,-1.61
2023-01-21T17:41:32.117Z,-1.64
2023-01-21T17:44:00.429Z,-1.68
2023-01-21T17:46:27.977Z,-1.59
2023-01-21T17:49:03.574Z,-1.56
2023-01-21T17:51:31.880Z,-1.41
2023-01-21T17:54:06.800Z,-1.55
2023-01-21T17:56:41.586Z,-1.50
2023-01-21T17:59:41.244Z,-1.45
2023-01-21T18:02:15.950Z,-1.60
2023-01-21T18:04:44.719Z,-1.63
2023-01-21T18:07:28.911Z,-1.36
2023-01-21T18:10:03.124Z,-1.43
2023-01-21T18:12:31.157Z,-1.43
2023-01-21T18:15:08.073Z,-1.44
2023-01-21T18:17:44.779Z,-1.44
2023-01-21T18:20:27.959Z,-1.51
2023-01-21T18:22:58.731Z,-1.44
2023-01-21T18:25:27.701Z,-1.61
2023-01-21T18:27:55.654Z,-1.77
2023-01-21T18:30:26.718Z,-1.83
2023-01-21T18:32:56.652Z,-1.77
2023-01-21T18:35:28.001Z,-1.78
2023-01-21T18:37:55.502Z,-1.75
2023-01-21T18:40:23.712Z,-1.65
2023-01-21T18:42:53.355Z,-1.60
2023-01-21T18:45:26.287Z,-1.59
2023-01-21T18:47:54.056Z,-1.56
2023-01-21T18:50:26.622Z,-1.57
2023-01-21T18:52:54.132Z,-1.58
2023-01-21T18:55:25.085Z,-1.55
2023-01-21T18:57:52.992Z,-1.59
2023-01-21T19:00:22.873Z,-1.56
2023-01-21T19:02:51.036Z,-1.53
2023-01-21T19:05:18.049Z,-1.54
2023-01-21T19:07:45.451Z,-1.61
2023-01-21T19:10:15.256Z,-1.69
2023-01-21T19:12:42.917Z,-1.73
2023-01-21T19:15:19.121Z,-1.80
2023-01-21T19:17:46.364Z,-1.82
2023-01-21T19:20:28.588Z,-1.72
2023-01-21T19:22:56.314Z,-1.74
2023-01-21T19:25:25.904Z,-1.63
2023-01-21T19:27:56.131Z,-1.54
2023-01-21T19:30:29.044Z,-1.38
2023-01-21T19:32:56.735Z,-1.39
2023-01-21T19:35:36.562Z,-1.44
2023-01-21T19:38:09.848Z,-1.50
2023-01-21T19:40:36.669Z,-1.59
2023-01-21T19:43:03.458Z,-1.64
2023-01-21T19:45:30.622Z,-1.72
2023-01-21T19:47:57.441Z,-1.72
2023-01-21T19:50:26.722Z,-1.74
2023-01-21T19:52:54.483Z,-1.79
2023-01-21T19:55:24.025Z,-1.74
2023-01-21T19:58:02.771Z,-1.69
2023-01-21T20:00:33.177Z,-1.70
2023-01-21T20:03:00.201Z,-1.68
2023-01-21T20:05:28.982Z,-1.64
2023-01-21T20:07:56.003Z,-1.68
2023-01-21T20:10:26.519Z,-1.75
2023-01-21T20:12:53.666Z,-1.79
2023-01-21T20:15:32.280Z,-1.82
2023-01-21T20:18:01.321Z,-1.86
2023-01-21T20:20:30.941Z,-1.88
2023-01-21T20:23:00.027Z,-1.88
2023-01-21T20:25:36.777Z,-1.91
2023-01-21T20:28:16.981Z,-1.89
2023-01-21T20:30:44.161Z,-1.90
2023-01-21T20:33:14.338Z,-1.88
2023-01-21T20:35:41.521Z,-1.90
2023-01-21T20:38:14.026Z,-1.90
2023-01-21T20:40:40.943Z,-1.92
2023-01-21T20:43:08.031Z,-1.94
2023-01-21T20:45:40.392Z,-1.97
2023-01-21T20:48:07.523Z,-1.99
2023-01-21T20:50:37.024Z,-1.97
2023-01-21T20:53:04.425Z,-1.93
2023-01-21T20:55:31.752Z,-1.89
2023-01-21T20:57:58.770Z,-1.87
2023-01-21T21:00:30.496Z,-1.87
2023-01-21T21:02:57.729Z,-1.90
2023-01-21T21:05:27.599Z,-1.94
2023-01-21T21:07:55.108Z,-1.97
2023-01-21T21:10:29.464Z,-1.95
2023-01-21T21:12:58.774Z,-1.96
2023-01-21T21:15:30.319Z,-1.99
2023-01-21T21:17:57.469Z,-2.00
2023-01-21T21:20:26.904Z,-1.97
2023-01-21T21:22:53.628Z,-1.98
2023-01-21T21:25:28.794Z,-2.04
2023-01-21T21:27:55.873Z,-2.09
2023-01-21T21:30:28.655Z,-2.11
2023-01-21T21:32:57.567Z,-2.14
2023-01-21T21:35:37.892Z,-2.17
2023-01-21T21:38:07.500Z,-2.21
2023-01-21T21:40:37.142Z,-2.23
2023-01-21T21:43:23.026Z,-2.26
2023-01-21T21:46:08.225Z,-2.29
2023-01-21T21:48:46.185Z,-2.30
2023-01-21T21:51:17.649Z,-2.32
2023-01-21T21:53:45.394Z,-2.32
2023-01-21T21:56:23.213Z,-2.31
2023-01-21T21:58:50.861Z,-2.30
2023-01-21T22:01:20.461Z,-2.29
2023-01-21T22:03:47.379Z,-2.29
2023-01-21T22:06:14.489Z,-2.33
2023-01-21T22:08:42.813Z,-2.34
2023-01-21T22:11:15.751Z,-2.35
2023-01-21T22:13:43.666Z,-2.34
2023-01-21T22:16:13.476Z,-2.33
2023-01-21T22:18:40.300Z,-2.33
2023-01-21T22:21:14.122Z,-2.34
2023-01-21T22:23:41.233Z,-2.30
2023-01-21T22:26:10.500Z,-2.21
2023-01-21T22:28:37.248Z,-2.18
2023-01-21T22:31:15.354Z,-2.08
2023-01-21T22:33:42.125Z,-2.02
2023-01-21T22:36:11.953Z,-1.98
2023-01-21T22:38:40.791Z,-1.89
2023-01-21T22:41:09.275Z,-1.79
2023-01-21T22:43:38.978Z,-1.77
2023-01-21T22:46:05.671Z,-1.68
2023-01-21T22:48:32.394Z,-1.61
2023-01-21T22:51:00.591Z,-1.59
2023-01-21T22:53:28.685Z,-1.44
2023-01-21T22:56:04.819Z,-1.40
2023-01-21T22:58:33.901Z,-1.37
2023-01-21T23:01:01.292Z,-1.30
2023-01-21T23:03:29.177Z,-1.26
2023-01-21T23:06:04.291Z,-1.23
2023-01-21T23:08:31.295Z,-1.22
2023-01-21T23:11:05.925Z,-1.26
2023-01-21T23:13:33.947Z,-1.19
2023-01-21T23:16:01.511Z,-1.17
2023-01-21T23:18:29.277Z,-1.21
2023-01-21T23:20:56.754Z,-1.20
2023-01-21T23:23:24.874Z,-1.23
2023-01-21T23:25:52.119Z,-1.28
2023-01-21T23:28:18.923Z,-1.32
2023-01-21T23:30:46.147Z,-1.36
2023-01-21T23:33:13.420Z,-1.41
2023-01-21T23:35:40.061Z,-1.45
2023-01-21T23:38:06.723Z,-1.53
2023-01-21T23:40:33.360Z,-1.52
2023-01-21T23:43:00.055Z,-1.47
2023-01-21T23:45:26.763Z,-1.49
2023-01-21T23:47:54.471Z,-1.54
2023-01-21T23:50:21.228Z,-1.54
2023-01-21T23:52:48.014Z,-1.53
2023-01-21T23:55:14.718Z,-1.49
2023-01-21T23:57:41.541Z,-1.48
